createdAt,value
2023-02-26T00:01:14.172Z,2.78
2023-02-26T00:03:41.905Z,3.67
2023-02-26T00:06:10.063Z,2.35
2023-02-26T00:08:38.018Z,2.88
2023-02-26T00:11:07.409Z,3.13
2023-02-26T00:13:37.393Z,2.90
2023-02-26T00:16:07.327Z,3.03
2023-02-26T00:18:35.318Z,2.22
2023-02-26T00:21:03.289Z,2.38
2023-02-26T00:23:31.192Z,2.83
2023-02-26T00:25:59.117Z,3.53
2023-02-26T00:28:27.089Z,2.78
2023-02-26T00:30:56.605Z,2.15
2023-02-26T00:33:24.559Z,2.30
2023-02-26T00:35:57.246Z,2.35
2023-02-26T00:38:25.071Z,2.83
2023-02-26T00:40:57.899Z,2.10
2023-02-26T00:43:26.621Z,2.83
2023-02-26T00:45:59.662Z,2.45
2023-02-26T00:48:32.404Z,2.50
2023-02-26T00:51:03.236Z,2.17
2023-02-26T00:53:35.687Z,3.25
2023-02-26T00:56:03.325Z,3.83
2023-02-26T00:58:30.919Z,2.38
2023-02-26T01:01:00.845Z,2.75
2023-02-26T01:03:28.920Z,4.15
2023-02-26T01:05:56.834Z,2.97
2023-02-26T01:08:29.219Z,3.05
2023-02-26T01:10:57.123Z,3.75
2023-02-26T01:13:24.922Z,3.30
2023-02-26T01:15:54.366Z,3.50
2023-02-26T01:18:25.677Z,3.95
2023-02-26T01:20:55.957Z,3.17
2023-02-26T01:23:25.593Z,3.13
2023-02-26T01:25:55.593Z,1.88
2023-02-26T01:28:23.479Z,2.35
2023-02-26T01:30:51.558Z,2.33
2023-02-26T01:33:22.742Z,3.92
2023-02-26T01:35:52.376Z,3.35
2023-02-26T01:38:25.818Z,3.45
2023-02-26T01:41:08.176Z,2.88
2023-02-26T01:43:38.263Z,2.70
2023-02-26T01:46:07.373Z,2.28
2023-02-26T01:48:37.957Z,2.30
2023-02-26T01:51:07.268Z,2.03
2023-02-26T01:53:34.866Z,2.80
2023-02-26T01:56:04.054Z,2.60
2023-02-26T01:58:33.428Z,4.28
2023-02-26T02:01:01.413Z,8.48
2023-02-26T02:03:31.427Z,5.60
2023-02-26T02:06:01.602Z,4.50
2023-02-26T02:08:33.508Z,2.78
2023-02-26T02:11:01.218Z,2.10
2023-02-26T02:13:38.837Z,2.22
2023-02-26T02:16:13.313Z,2.40
2023-02-26T02:18:45.358Z,2.60
2023-02-26T02:21:27.327Z,6.22
2023-02-26T02:24:00.338Z,3.55
2023-02-26T02:26:42.686Z,1.95
2023-02-26T02:29:25.554Z,2.70
2023-02-26T02:31:56.927Z,2.20
2023-02-26T02:34:28.223Z,2.13
2023-02-26T02:36:57.966Z,1.65
2023-02-26T02:39:27.098Z,1.58
2023-02-26T02:41:56.051Z,1.80
2023-02-26T02:44:26.362Z,1.90
2023-02-26T02:46:57.346Z,2.20
2023-02-26T02:49:26.339Z,1.95
2023-02-26T02:51:55.500Z,2.03
2023-02-26T02:54:25.030Z,1.30
2023-02-26T02:56:56.452Z,1.35
2023-02-26T02:59:26.286Z,1.90
2023-02-26T03:02:03.490Z,1.55
2023-02-26T03:04:31.184Z,1.60
2023-02-26T03:06:58.997Z,2.30
2023-02-26T03:09:26.703Z,1.98
2023-02-26T03:11:54.430Z,2.40
2023-02-26T03:14:22.334Z,1.92
2023-02-26T03:17:02.194Z,1.85
2023-02-26T03:19:32.686Z,1.63
2023-02-26T03:22:14.784Z,2.50
2023-02-26T03:24:48.031Z,1.27
2023-02-26T03:27:18.394Z,1.58
2023-02-26T03:29:52.425Z,1.65
2023-02-26T03:32:23.570Z,1.92
2023-02-26T03:34:54.808Z,2.05
2023-02-26T03:37:24.702Z,2.20
2023-02-26T03:39:53.564Z,1.83
2023-02-26T03:42:25.739Z,1.20
2023-02-26T03:44:54.335Z,1.52
2023-02-26T03:47:24.476Z,0.95
2023-02-26T03:49:54.405Z,1.23
2023-02-26T03:52:23.730Z,1.30
2023-02-26T03:54:53.889Z,1.60
2023-02-26T03:57:21.525Z,1.48
2023-02-26T03:59:49.212Z,1.45
2023-02-26T04:02:18.469Z,1.50
2023-02-26T04:04:49.200Z,1.95
2023-02-26T04:07:18.138Z,1.75
2023-02-26T04:09:46.791Z,1.85
2023-02-26T04:12:14.686Z,2.15
2023-02-26T04:14:42.465Z,1.60
2023-02-26T04:17:10.046Z,1.30
2023-02-26T04:19:37.676Z,1.45
2023-02-26T04:22:06.831Z,1.52
2023-02-26T04:24:34.689Z,1.67
2023-02-26T04:27:02.426Z,1.73
2023-02-26T04:29:30.077Z,0.95
2023-02-26T04:31:58.057Z,1.48
2023-02-26T04:34:25.907Z,1.55
2023-02-26T04:36:53.535Z,1.13
2023-02-26T04:39:22.539Z,0.93
2023-02-26T04:41:50.138Z,1.15
2023-02-26T04:44:17.763Z,1.05
2023-02-26T04:46:45.436Z,1.05
2023-02-26T04:49:13.089Z,1.45
2023-02-26T04:51:40.706Z,0.60
2023-02-26T04:54:08.371Z,1.05
2023-02-26T04:56:37.325Z,0.80
2023-02-26T04:59:04.933Z,0.77
2023-02-26T05:01:32.782Z,0.80
2023-02-26T05:04:01.329Z,0.82
2023-02-26T05:06:29.018Z,0.80
2023-02-26T05:08:56.672Z,0.90
2023-02-26T05:11:24.408Z,1.73
2023-02-26T05:13:53.822Z,1.85
2023-02-26T05:16:21.581Z,1.40
2023-02-26T05:18:49.401Z,1.65
2023-02-26T05:21:17.290Z,0.60
2023-02-26T05:23:44.924Z,1.65
2023-02-26T05:26:13.547Z,0.70
2023-02-26T05:28:41.195Z,0.90
2023-02-26T05:31:10.399Z,0.82
2023-02-26T05:33:38.184Z,0.90
2023-02-26T05:36:07.075Z,0.32
2023-02-26T05:38:34.757Z,0.90
2023-02-26T05:41:02.519Z,1.02
2023-02-26T05:43:30.531Z,0.80
2023-02-26T05:45:58.217Z,1.02
2023-02-26T05:48:27.277Z,0.90
2023-02-26T05:50:54.949Z,1.13
2023-02-26T05:53:22.554Z,1.05
2023-02-26T05:55:50.492Z,1.77
2023-02-26T05:58:18.098Z,1.70
2023-02-26T06:00:45.727Z,2.58
2023-02-26T06:03:13.902Z,2.72
2023-02-26T06:05:42.924Z,1.15
2023-02-26T06:08:12.282Z,1.27
2023-02-26T06:10:39.929Z,1.27
2023-02-26T06:13:07.786Z,0.82
2023-02-26T06:15:35.414Z,0.50
2023-02-26T06:18:03.024Z,0.63
2023-02-26T06:20:30.829Z,0.70
2023-02-26T06:23:18.537Z,0.77
2023-02-26T06:25:47.547Z,0.90
2023-02-26T06:28:15.202Z,0.28
2023-02-26T06:30:43.255Z,0.77
2023-02-26T06:33:10.954Z,0.68
2023-02-26T06:35:38.613Z,0.63
2023-02-26T06:38:06.586Z,0.80
2023-02-26T06:40:34.408Z,0.57
2023-02-26T06:43:03.503Z,0.60
2023-02-26T06:45:31.102Z,0.50
2023-02-26T06:47:58.844Z,0.75
2023-02-26T06:50:26.482Z,0.57
2023-02-26T06:52:56.844Z,0.85
2023-02-26T06:55:27.000Z,0.88
2023-02-26T06:57:54.738Z,1.00
2023-02-26T07:00:25.717Z,0.85
2023-02-26T07:02:53.809Z,0.80
2023-02-26T07:05:21.974Z,0.60
2023-02-26T07:07:49.656Z,1.33
2023-02-26T07:10:17.322Z,1.00
2023-02-26T07:12:45.407Z,0.90
2023-02-26T07:15:13.064Z,1.45
2023-02-26T07:17:42.074Z,0.90
2023-02-26T07:20:12.198Z,1.02
2023-02-26T07:22:39.854Z,0.98
2023-02-26T07:25:08.242Z,0.57
2023-02-26T07:27:35.900Z,0.70
2023-02-26T07:30:03.944Z,0.85
2023-02-26T07:32:31.715Z,0.50
2023-02-26T07:35:00.723Z,1.25
2023-02-26T07:37:29.147Z,0.70
2023-02-26T07:39:57.038Z,0.57
2023-02-26T07:42:25.151Z,0.68
2023-02-26T07:44:52.865Z,0.93
2023-02-26T07:47:21.756Z,1.00
2023-02-26T07:49:49.398Z,1.30
2023-02-26T07:52:19.217Z,1.58
2023-02-26T07:54:46.834Z,0.90
2023-02-26T07:57:14.458Z,1.40
2023-02-26T07:59:42.102Z,1.00
2023-02-26T08:02:09.775Z,2.03
2023-02-26T08:04:37.530Z,1.52
2023-02-26T08:07:05.260Z,1.00
2023-02-26T08:09:34.243Z,1.02
2023-02-26T08:12:01.916Z,0.65
2023-02-26T08:14:29.545Z,1.50
2023-02-26T08:16:57.205Z,0.90
2023-02-26T08:19:24.845Z,0.77
2023-02-26T08:21:55.261Z,1.10
2023-02-26T08:24:23.122Z,0.80
2023-02-26T08:26:52.103Z,0.90
2023-02-26T08:29:54.011Z,0.43
2023-02-26T08:32:23.025Z,0.75
2023-02-26T08:34:50.935Z,0.47
2023-02-26T08:37:18.542Z,0.47
2023-02-26T08:39:46.190Z,0.50
2023-02-26T08:42:16.424Z,1.00
2023-02-26T08:44:44.107Z,0.85
2023-02-26T08:47:12.501Z,0.63
2023-02-26T08:49:41.279Z,0.28
2023-02-26T08:52:09.041Z,0.88
2023-02-26T08:54:36.747Z,0.68
2023-02-26T08:57:05.393Z,0.32
2023-02-26T08:59:34.372Z,0.77
2023-02-26T09:02:02.420Z,0.45
2023-02-26T09:04:31.235Z,0.93
2023-02-26T09:06:59.032Z,0.68
2023-02-26T09:09:27.103Z,0.60
2023-02-26T09:11:54.806Z,0.55
2023-02-26T09:14:22.483Z,0.47
2023-02-26T09:16:51.661Z,0.32
2023-02-26T09:19:19.347Z,0.63
2023-02-26T09:21:47.211Z,0.22
2023-02-26T09:24:15.324Z,0.57
2023-02-26T09:26:43.085Z,0.47
2023-02-26T09:29:11.496Z,0.93
2023-02-26T09:31:39.305Z,0.70
2023-02-26T09:34:09.909Z,0.50
2023-02-26T09:36:38.901Z,0.68
2023-02-26T09:39:06.636Z,0.60
2023-02-26T09:41:36.518Z,1.25
2023-02-26T09:44:14.575Z,0.50
2023-02-26T09:46:46.821Z,0.43
2023-02-26T09:49:23.640Z,0.70
2023-02-26T09:51:53.226Z,0.57
2023-02-26T09:54:37.869Z,0.20
2023-02-26T09:57:07.080Z,0.65
2023-02-26T09:59:35.178Z,0.70
2023-02-26T10:02:05.958Z,0.63
2023-02-26T10:04:44.507Z,0.52
2023-02-26T10:07:17.399Z,0.40
2023-02-26T10:09:51.389Z,0.30
2023-02-26T10:12:20.164Z,0.57
2023-02-26T10:14:52.212Z,0.70
2023-02-26T10:17:22.715Z,1.00
2023-02-26T10:19:54.075Z,0.40
2023-02-26T10:22:25.219Z,0.40
2023-02-26T10:24:55.192Z,0.40
2023-02-26T10:27:25.565Z,0.32
2023-02-26T10:29:58.970Z,0.40
2023-02-26T10:32:29.752Z,0.28
2023-02-26T10:34:59.857Z,0.60
2023-02-26T10:37:32.759Z,1.15
2023-02-26T10:40:09.191Z,0.55
2023-02-26T10:42:39.790Z,0.65
2023-02-26T10:45:12.641Z,0.60
2023-02-26T10:47:45.154Z,0.70
2023-02-26T10:50:15.295Z,0.80
2023-02-26T10:52:44.370Z,1.13
2023-02-26T10:55:27.364Z,0.50
2023-02-26T10:57:57.977Z,0.20
2023-02-26T11:00:26.374Z,0.43
2023-02-26T11:02:55.717Z,0.30
2023-02-26T11:05:25.625Z,0.60
2023-02-26T11:07:55.455Z,0.35
2023-02-26T11:10:24.829Z,0.80
2023-02-26T11:12:52.866Z,0.30
2023-02-26T11:15:21.615Z,0.30
2023-02-26T11:17:50.060Z,1.20
2023-02-26T11:20:20.139Z,0.68
2023-02-26T11:22:50.199Z,0.43
2023-02-26T11:25:19.940Z,0.30
2023-02-26T11:27:49.683Z,0.77
2023-02-26T11:30:18.803Z,0.50
2023-02-26T11:32:47.194Z,0.68
2023-02-26T11:35:44.564Z,0.68
2023-02-26T11:38:17.666Z,0.40
2023-02-26T11:40:47.452Z,0.60
2023-02-26T11:43:16.896Z,0.70
2023-02-26T11:45:46.526Z,1.23
2023-02-26T11:48:15.689Z,0.38
2023-02-26T11:50:44.429Z,0.30
2023-02-26T11:53:24.884Z,0.60
2023-02-26T11:55:53.801Z,0.60
2023-02-26T11:58:22.649Z,0.45
2023-02-26T12:00:52.407Z,0.90
2023-02-26T12:03:22.066Z,0.43
2023-02-26T12:05:49.978Z,0.93
2023-02-26T12:08:26.777Z,0.77
2023-02-26T12:10:59.926Z,0.60
2023-02-26T12:13:31.434Z,0.60
2023-02-26T12:16:01.502Z,0.80
2023-02-26T12:18:38.469Z,0.43
2023-02-26T12:21:14.693Z,0.60
2023-02-26T12:23:56.600Z,0.65
2023-02-26T12:26:28.361Z,0.50
2023-02-26T12:29:05.676Z,0.70
2023-02-26T12:31:48.264Z,0.50
2023-02-26T12:34:22.802Z,0.52
2023-02-26T12:36:56.100Z,0.43
2023-02-26T12:39:33.630Z,0.73
2023-02-26T12:42:08.964Z,0.68
2023-02-26T12:44:47.161Z,0.77
2023-02-26T12:47:27.565Z,0.73
2023-02-26T12:50:08.158Z,0.95
2023-02-26T12:52:50.872Z,0.55
2023-02-26T12:55:29.062Z,0.63
2023-02-26T12:58:14.704Z,0.52
2023-02-26T13:00:51.412Z,0.70
2023-02-26T13:03:32.837Z,1.15
2023-02-26T13:06:09.164Z,0.70
2023-02-26T13:08:40.222Z,0.50
2023-02-26T13:11:17.227Z,0.70
2023-02-26T13:13:50.887Z,0.95
2023-02-26T13:16:23.673Z,0.82
2023-02-26T13:18:55.032Z,0.65
2023-02-26T13:21:24.891Z,0.40
2023-02-26T13:23:54.337Z,0.60
2023-02-26T13:26:23.725Z,1.05
2023-02-26T13:28:53.395Z,0.77
2023-02-26T13:31:26.794Z,1.23
2023-02-26T13:33:56.290Z,0.90
2023-02-26T13:36:25.349Z,0.70
2023-02-26T13:39:04.771Z,0.90
2023-02-26T13:41:40.481Z,0.88
2023-02-26T13:44:15.714Z,0.68
2023-02-26T13:46:48.814Z,0.57
2023-02-26T13:49:18.763Z,0.70
2023-02-26T13:51:48.005Z,0.90
2023-02-26T13:54:36.066Z,0.63
2023-02-26T13:57:10.239Z,0.55
2023-02-26T13:59:46.510Z,0.55
2023-02-26T14:02:47.295Z,0.70
2023-02-26T14:05:33.577Z,0.82
2023-02-26T14:08:23.212Z,0.80
2023-02-26T14:10:55.822Z,0.65
2023-02-26T14:13:26.282Z,0.90
2023-02-26T14:16:00.870Z,0.80
2023-02-26T14:18:32.746Z,0.60
2023-02-26T14:21:18.801Z,0.68
2023-02-26T14:23:49.259Z,0.60
2023-02-26T14:26:19.508Z,1.08
2023-02-26T14:28:57.928Z,0.77
2023-02-26T14:31:27.999Z,1.35
2023-02-26T14:34:00.475Z,0.52
2023-02-26T14:36:33.121Z,0.70
2023-02-26T14:39:04.371Z,1.05
2023-02-26T14:41:34.198Z,1.00
2023-02-26T14:44:06.534Z,0.65
2023-02-26T14:46:35.012Z,0.50
2023-02-26T14:49:02.966Z,0.90
2023-02-26T14:51:36.458Z,1.15
2023-02-26T14:54:13.533Z,0.65
2023-02-26T14:56:52.502Z,0.38
2023-02-26T14:59:27.259Z,1.33
2023-02-26T15:02:01.935Z,0.70
2023-02-26T15:04:41.481Z,0.60
2023-02-26T15:07:27.840Z,0.57
2023-02-26T15:10:09.780Z,0.30
2023-02-26T15:12:42.975Z,0.60
2023-02-26T15:15:25.178Z,0.90
2023-02-26T15:17:58.164Z,0.90
2023-02-26T15:20:31.016Z,0.85
2023-02-26T15:23:06.848Z,0.98
2023-02-26T15:25:36.202Z,0.43
2023-02-26T15:28:04.912Z,0.57
2023-02-26T15:30:34.634Z,1.33
2023-02-26T15:33:21.996Z,0.45
2023-02-26T15:35:53.249Z,0.57
2023-02-26T15:38:20.957Z,0.57
2023-02-26T15:40:49.471Z,0.77
2023-02-26T15:43:18.281Z,0.95
2023-02-26T15:45:48.457Z,0.82
2023-02-26T15:48:17.314Z,0.77
2023-02-26T15:50:46.017Z,0.82
2023-02-26T15:53:19.785Z,0.85
2023-02-26T15:55:49.413Z,0.50
2023-02-26T15:58:20.860Z,0.70
2023-02-26T16:00:53.663Z,0.90
2023-02-26T16:03:26.174Z,1.13
2023-02-26T16:05:55.304Z,0.68
2023-02-26T16:08:23.016Z,0.77
2023-02-26T16:10:50.836Z,1.35
2023-02-26T16:13:22.182Z,0.85
2023-02-26T16:15:51.324Z,0.77
2023-02-26T16:18:20.068Z,0.68
2023-02-26T16:20:49.571Z,1.17
2023-02-26T16:23:19.484Z,0.90
2023-02-26T16:25:50.649Z,0.70
2023-02-26T16:28:21.098Z,0.95
2023-02-26T16:30:50.706Z,0.88
2023-02-26T16:33:22.632Z,0.50
2023-02-26T16:35:51.203Z,0.90
2023-02-26T16:38:20.675Z,0.50
2023-02-26T16:40:49.969Z,1.15
2023-02-26T16:43:33.557Z,0.90
2023-02-26T16:46:02.073Z,0.80
2023-02-26T16:48:32.410Z,1.25
2023-02-26T16:51:01.374Z,0.65
2023-02-26T16:53:33.605Z,0.55
2023-02-26T16:56:01.351Z,0.70
2023-02-26T16:58:31.021Z,0.63
2023-02-26T17:01:04.857Z,0.80
2023-02-26T17:03:34.467Z,0.75
2023-02-26T17:06:06.487Z,0.98
2023-02-26T17:08:35.373Z,1.08
2023-02-26T17:11:04.379Z,1.00
2023-02-26T17:13:33.718Z,1.23
2023-02-26T17:16:03.304Z,0.60
2023-02-26T17:18:31.825Z,0.73
2023-02-26T17:21:04.479Z,0.43
2023-02-26T17:23:33.496Z,0.65
2023-02-26T17:26:02.441Z,0.63
2023-02-26T17:28:31.645Z,0.70
2023-02-26T17:30:59.359Z,0.68
2023-02-26T17:33:28.229Z,1.00
2023-02-26T17:35:57.408Z,0.82
2023-02-26T17:38:26.428Z,1.25
2023-02-26T17:40:55.661Z,0.80
2023-02-26T17:43:24.317Z,0.73
2023-02-26T17:45:52.415Z,0.70
2023-02-26T17:48:20.090Z,1.20
2023-02-26T17:50:48.802Z,1.52
2023-02-26T17:53:17.449Z,0.95
2023-02-26T17:55:47.228Z,0.93
2023-02-26T17:58:16.175Z,1.02
2023-02-26T18:00:43.852Z,1.02
2023-02-26T18:03:11.787Z,1.10
2023-02-26T18:05:41.626Z,1.45
2023-02-26T18:08:14.151Z,2.22
2023-02-26T18:10:41.767Z,1.30
2023-02-26T18:13:11.361Z,1.20
2023-02-26T18:15:39.154Z,0.90
2023-02-26T18:18:07.100Z,0.98
2023-02-26T18:20:34.730Z,1.23
2023-02-26T18:23:02.922Z,1.02
2023-02-26T18:25:30.658Z,1.17
2023-02-26T18:28:00.337Z,1.02
2023-02-26T18:30:30.157Z,1.33
2023-02-26T18:32:57.871Z,1.13
2023-02-26T18:35:26.239Z,1.77
2023-02-26T18:37:54.867Z,1.65
2023-02-26T18:40:27.234Z,2.22
2023-02-26T18:42:54.898Z,1.85
2023-02-26T18:45:22.617Z,1.38
2023-02-26T18:47:51.844Z,1.75
2023-02-26T18:50:19.766Z,1.10
2023-02-26T18:52:47.703Z,1.10
2023-02-26T18:55:15.549Z,1.70
2023-02-26T18:57:43.308Z,2.20
2023-02-26T19:00:14.419Z,2.05
2023-02-26T19:02:42.479Z,1.83
2023-02-26T19:05:11.845Z,1.75
2023-02-26T19:07:39.981Z,1.15
2023-02-26T19:10:09.412Z,1.25
2023-02-26T19:12:37.111Z,1.23
2023-02-26T19:15:05.017Z,1.08
2023-02-26T19:17:32.618Z,1.25
2023-02-26T19:20:00.266Z,1.02
2023-02-26T19:22:29.557Z,1.13
2023-02-26T19:24:57.213Z,1.00
2023-02-26T19:27:24.819Z,0.88
2023-02-26T19:29:52.600Z,0.95
2023-02-26T19:32:20.523Z,1.20
2023-02-26T19:34:50.182Z,1.02
2023-02-26T19:37:17.895Z,1.08
2023-02-26T19:39:46.896Z,1.10
2023-02-26T19:42:15.396Z,1.00
2023-02-26T19:44:43.191Z,0.88
2023-02-26T19:47:11.037Z,1.10
2023-02-26T19:49:38.617Z,1.13
2023-02-26T19:52:08.164Z,1.17
2023-02-26T19:54:35.922Z,1.35
2023-02-26T19:57:04.931Z,1.55
2023-02-26T19:59:32.772Z,0.80
2023-02-26T20:02:00.452Z,0.80
2023-02-26T20:04:33.595Z,0.85
2023-02-26T20:07:01.276Z,1.13
2023-02-26T20:09:28.903Z,1.38
2023-02-26T20:11:56.627Z,1.63
2023-02-26T20:14:25.750Z,1.63
2023-02-26T20:16:53.401Z,0.80
2023-02-26T20:19:21.439Z,2.35
2023-02-26T20:21:50.046Z,1.38
2023-02-26T20:24:20.183Z,1.52
2023-02-26T20:26:49.014Z,1.25
2023-02-26T20:29:18.431Z,2.00
2023-02-26T20:31:50.011Z,1.90
2023-02-26T20:34:19.347Z,1.50
2023-02-26T20:36:48.256Z,1.30
2023-02-26T20:39:15.957Z,1.58
2023-02-26T20:41:43.721Z,1.30
2023-02-26T20:44:11.336Z,1.33
2023-02-26T20:46:39.362Z,1.20
2023-02-26T20:49:11.584Z,1.92
2023-02-26T20:51:39.839Z,1.00
2023-02-26T20:54:08.105Z,1.58
2023-02-26T20:56:35.714Z,1.08
2023-02-26T20:59:03.330Z,1.05
2023-02-26T21:01:35.633Z,1.10
2023-02-26T21:04:04.320Z,1.10
2023-02-26T21:06:33.764Z,1.58
2023-02-26T21:09:02.285Z,1.45
2023-02-26T21:11:31.546Z,1.98
2023-02-26T21:13:59.188Z,1.45
2023-02-26T21:16:28.480Z,1.70
2023-02-26T21:18:56.434Z,1.15
2023-02-26T21:21:24.229Z,1.90
2023-02-26T21:23:53.364Z,1.38
2023-02-26T21:26:22.998Z,0.82
2023-02-26T21:28:50.636Z,1.83
2023-02-26T21:31:19.249Z,1.33
2023-02-26T21:33:47.119Z,1.08
2023-02-26T21:36:15.864Z,0.63
2023-02-26T21:38:43.641Z,1.02
2023-02-26T21:41:12.795Z,1.10
2023-02-26T21:43:40.565Z,2.45
2023-02-26T21:46:08.236Z,1.52
2023-02-26T21:48:35.960Z,1.35
2023-02-26T21:51:03.813Z,1.27
2023-02-26T21:53:31.542Z,1.20
2023-02-26T21:55:59.237Z,1.42
2023-02-26T21:58:28.363Z,1.40
2023-02-26T22:00:58.508Z,1.35
2023-02-26T22:03:27.312Z,1.55
2023-02-26T22:05:54.969Z,1.27
2023-02-26T22:08:22.631Z,1.52
2023-02-26T22:10:50.351Z,0.80
2023-02-26T22:13:17.963Z,1.00
2023-02-26T22:15:49.862Z,1.15
2023-02-26T22:18:17.488Z,1.40
2023-02-26T22:20:45.456Z,0.98
2023-02-26T22:23:13.239Z,0.80
2023-02-26T22:25:41.148Z,1.13
2023-02-26T22:28:10.433Z,2.50
2023-02-26T22:30:38.251Z,1.00
2023-02-26T22:33:07.260Z,1.20
2023-02-26T22:35:35.076Z,1.40
2023-02-26T22:38:02.703Z,0.68
2023-02-26T22:40:30.430Z,1.05
2023-02-26T22:42:58.082Z,0.73
2023-02-26T22:45:25.727Z,1.52
2023-02-26T22:47:53.464Z,0.57
2023-02-26T22:50:22.545Z,1.17
2023-02-26T22:52:50.292Z,0.75
2023-02-26T22:55:18.108Z,0.60
2023-02-26T22:57:45.800Z,1.17
2023-02-26T23:00:15.829Z,0.90
2023-02-26T23:02:44.407Z,1.17
2023-02-26T23:05:12.376Z,0.52
2023-02-26T23:07:41.501Z,0.93
2023-02-26T23:10:10.294Z,1.35
2023-02-26T23:12:38.496Z,1.20
2023-02-26T23:15:06.754Z,1.55
2023-02-26T23:17:34.846Z,1.17
2023-02-26T23:20:02.495Z,1.10
2023-02-26T23:22:31.374Z,1.23
2023-02-26T23:25:00.356Z,0.90
2023-02-26T23:27:28.105Z,1.05
2023-02-26T23:29:55.732Z,0.98
2023-02-26T23:32:23.465Z,1.20
2023-02-26T23:34:51.690Z,1.25
2023-02-26T23:37:19.311Z,2.75
2023-02-26T23:39:48.760Z,0.90
2023-02-26T23:42:18.178Z,0.80
2023-02-26T23:44:47.109Z,0.88
2023-02-26T23:47:14.808Z,1.00
2023-02-26T23:49:42.416Z,1.40
2023-02-26T23:52:10.139Z,1.02
2023-02-26T23:54:39.780Z,0.90
2023-02-26T23:57:07.456Z,0.90
2023-02-26T23:59:36.411Z,1.00
